Sierra Nevada Aquatic Research Lab (SNARL) Reserve, Santa Monica Mtns, California Weather observations

Data are for 10 minute period ending at time listed.
 Day   Time   Solar   Ave.   Ave.  Ave.  Vector  Max.   Baro.   Total    
  of    of     Rad.   Air    Rel.  Wind   Wind   Wind  Press.  Precip.   
Year   Day            Temp.  Hum.  Speed  Dir.   Gust                    
2014   (PST)  Kw/m2    F      %     mph   deg.    mph    mb.     in.     
-------------------------------------------------------------------------
 230   20:50   0.00   56.3    37    2.3   282     5.3   783.3    0.00 
 230   21:00   0.00   54.7    38    2.4   236     4.3   783.2    0.00 
 230   21:10   0.00   54.0    39    1.2   266     3.2   783.1    0.00 
 230   21:20   0.00   53.1    39    2.7   225     4.4   783.2    0.00 
 230   21:30   0.00   52.3    40    2.0   216     3.8   783.2    0.00 
 230   21:40   0.00   51.1    42    3.4   230     5.8   783.1    0.00 
 230   21:50   0.00   51.3    42    4.6   244     6.4   783.2    0.00 
 230   22:00   0.00   51.8    41    4.0   226     6.1   783.1    0.00 
 230   22:10   0.00   52.9    40    3.4   230     4.7   783.0    0.00 
 230   22:20   0.00   52.0    41    4.0   226     5.3   782.9    0.00 
 230   22:30   0.00   52.7    41    3.2   270     5.2   782.9    0.00 
 230   22:40   0.00   51.0    43    1.3    99     2.3   782.9    0.00 
 230   22:50   0.00   49.9    45    3.0    83     6.1   783.0    0.00 
 230   23:00   0.00   48.9    47    1.5   322     4.4   783.0    0.00 
 230   23:10   0.00   49.4    49    1.1    19     2.2   783.0    0.00 
 230   23:20   0.00   47.2    48    2.8   232     5.4   783.1    0.00 
 230   23:30   0.00   47.0    50    0.8   232     3.2   783.2    0.00 
 230   23:40   0.00   46.2    49    3.2   244     5.2   783.2    0.00 
 230   23:50   0.00   47.6    51    2.6   278     4.0   783.2    0.00 
 231    0:00   0.00   45.9    52    1.4   208     2.8   783.3    0.00 
 231    0:10   0.00   46.1    51    3.1   240     4.4   783.2    0.00 
 231    0:20   0.00   46.2    51    2.1   256     4.2   783.1    0.00 
 231    0:30   0.00   45.5    56    1.0   251     2.2   783.1    0.00 
 231    0:40   0.00   44.1    53    2.5   223     4.3   783.1    0.00 
 231    0:50   0.00   44.5    53    0.8   134     2.0   783.1    0.00 
 231    1:00   0.00   45.3    52    1.0   238     3.0   783.2    0.00 
 231    1:10   0.00   45.6    53    1.1   250     2.7   783.1    0.00 
 231    1:20   0.00   45.4    52    2.5   222     5.0   783.1    0.00 
 231    1:30   0.00   45.1    52    2.7   223     4.5   783.1    0.00 
 231    1:40   0.00   44.9    53    1.6   234     2.9   783.1    0.00 
 231    1:50   0.00   44.9    53    1.8   239     2.9   783.1    0.00 
 231    2:00   0.00   45.0    54    3.0   251     3.9   783.1    0.00 
 231    2:10   0.00   43.7    57    2.1   228     3.7   783.1    0.00 
 231    2:20   0.00   43.3    57    1.1   161     3.4   783.2    0.00 
 231    2:30   0.00   43.7    56    1.7   265     3.0   783.3    0.00 
 231    2:40   0.00   44.7    58    1.5   313     3.1   783.3    0.00 
 231    2:50   0.00   42.7    57    1.9   228     2.9   783.3    0.00 
 231    3:00   0.00   43.1    58    1.2   262     2.0   783.2    0.00 
 231    3:10   0.00   43.0    59    1.2   244     4.2   783.3    0.00 
 231    3:20   0.00   42.4    61    2.8   253     6.9   783.3    0.00 
 231    3:30   0.00   43.4    60    2.8   185     5.7   783.3    0.00 
 231    3:40   0.00   43.5    61    1.6   231     4.7   783.3    0.00 
 231    3:50   0.00   43.1    59    0.6   254     2.0   783.2    0.00 
 231    4:00   0.00   43.3    62    0.6    30     1.8   783.3    0.00 
 231    4:10   0.00   41.4    63    2.3   261     6.0   783.3    0.00 
 231    4:20   0.00   41.4    62    1.9   252     5.7   783.3    0.00 
 231    4:30   0.00   40.6    65    1.9   175     4.4   783.3    0.00 
 231    4:40   0.00   40.7    65    1.9   186     3.5   783.3    0.00 
 231    4:50   0.00   41.0    63    1.7   231     4.9   783.3    0.00 
 231    5:00   0.00   41.0    64    2.1   286     5.4   783.3    0.00 
 231    5:10   0.00   40.8    63    2.9   257     5.5   783.3    0.00 
 231    5:20   0.00   40.0    63    2.1   236     3.7   783.3    0.00 
 231    5:30   0.01   40.3    63    2.8   235     5.3   783.3    0.00 
 231    5:40   0.03   41.1    62    1.9   242     3.7   783.4    0.00 
 231    5:50   0.06   41.8    61    0.7   229     1.8   783.4    0.00 
 231    6:00   0.10   45.1    59    0.8   243     2.1   783.3    0.00 
 231    6:10   0.15   48.9    54    0.3   352     2.0   783.3    0.00 
 231    6:20   0.20   53.9    47    0.5    47     2.5   783.3    0.00 
 231    6:30   0.24   57.8    42    0.5    88     1.8   783.2    0.00 
 231    6:40   0.22   59.9    39    0.2   149     1.4   783.1    0.00 
 231    6:50   0.18   59.1    41    1.5    54     2.9   783.1    0.00 
 231    7:00   0.23   57.8    45    1.1    36     4.8   783.0    0.00 
 231    7:10   0.32   59.2    42    3.4    38     6.2   783.0    0.00 
 231    7:20   0.38   60.8    41    3.0    43     5.9   783.1    0.00 
 231    7:30   0.40   61.9    40    3.1    44     5.7   783.1    0.00 
 231    7:40   0.46   63.2    38    2.9    56     6.4   783.1    0.00 
 231    7:50   0.44   64.4    37    2.1    64     5.0   783.1    0.00 
 231    8:00   0.35   64.9    32    2.3    61     3.7   783.2    0.00 
 231    8:10   0.52   65.7    30    1.8    65     3.7   783.2    0.00 
 231    8:20   0.57   67.7    25    1.5    35     4.1   783.2    0.00 
 231    8:30   0.62   68.7    20    1.6    81     3.4   783.2    0.00 
 231    8:40   0.67   70.2    19    2.3    56     5.4   783.2    0.00 
 231    8:50   0.69   71.9    16    2.6   254     7.5   783.2    0.00 
 231    9:00   0.72   72.5    17    3.1    13     7.8   783.3    0.00 
 231    9:10   0.73   71.9    17    3.9   106     7.9   783.3    0.00 
 231    9:20   0.75   72.8    16    2.1    93     7.4   783.3    0.00 
 231    9:30   0.74   72.6    17    5.2   293     9.9   783.3    0.00 
 231    9:40   0.49   72.3    16    1.7   323     5.3   783.3    0.00 
 231    9:50   0.78   72.9    19    4.1    61     8.5   783.2    0.00 
 231   10:00   0.88   72.4    18    3.4    29     7.5   783.2    0.00 
 231   10:10   0.98   74.4    18    7.0   106    15.3   783.1    0.00 
 231   10:20   0.94   73.8    16    5.4   170    10.2   783.0    0.00 
 231   10:30   0.48   73.6    17    7.3   120    15.6   782.9    0.00 
 231   10:40   0.43   71.6    19    7.1    91    12.4   783.0    0.00 
 231   10:50   0.93   72.8    19    3.9    68     6.6   783.1    0.00 
 231   11:00   0.87   74.4    17    4.9   106    11.1   783.0    0.00 
 231   11:10   0.58   73.7    16    3.1   144     7.7   782.8    0.00 
 231   11:20   0.90   75.4    17    3.5    71     8.2   782.7    0.00 
 231   11:30   1.03   75.3    17    6.2    34    11.6   782.6    0.00 
 231   11:40   1.04   75.6    16    3.3    40     8.0   782.4    0.00 
 231   11:50   0.56   75.5    18    6.6    79    16.4   782.3    0.00 
 231   12:00   0.97   75.6    16    5.9    96    12.6   782.3    0.00 
 231   12:10   0.89   76.9    16    4.0    88     9.1   782.2    0.00 
 231   12:20   0.82   76.7    18    5.8    65    15.3   782.1    0.00 
 231   12:30   0.97   77.2    16    6.6   117    13.0   782.0    0.00 
 231   12:40   0.98   76.6    16    8.6   106    17.8   781.9    0.00 
 231   12:50   0.98   77.2    16    8.0    80    14.3   781.8    0.00 
 231   13:00   0.65   76.7    15    7.2    87    14.2   781.8    0.00 
 231   13:10   0.84   76.3    15    8.4    97    15.5   781.7    0.00 
 231   13:20   0.98   77.2    14    9.5   120    15.3   781.7    0.00 
 231   13:30   0.92   78.0    14    6.6   102    13.7   781.5    0.00 
 231   13:40   0.92   77.8    14    6.0    96    14.0   781.4    0.00 
 231   13:50   0.89   78.2    13    9.8    96    18.5   781.2    0.00 
 231   14:00   0.86   78.5    12    4.4   136    13.2   781.1    0.00 
 231   14:10   0.84   79.6    12   11.1   103    19.8   780.9    0.00 
 231   14:20   0.82   79.0    13    9.1   106    17.2   780.9    0.00 
 231   14:30   0.68   77.5    13    9.1    90    17.8   780.8    0.00 
 231   14:40   0.67   77.3    13    5.1    76    12.5   780.8    0.00 
 231   14:50   0.44   76.8    14    5.3    78    15.9   780.6    0.00 
 231   15:00   0.75   77.0    14    4.8    52    11.9   780.5    0.00 
 231   15:10   0.69   78.1    12    5.9    80    11.6   780.5    0.00 
 231   15:20   0.58   77.7    15    5.3    30    13.1   780.5    0.00 
 231   15:30   0.21   76.2    19    5.5     0    16.4   780.5    0.00 
 231   15:40   0.48   75.2    21    7.7   288    18.6   780.4    0.00 
 231   15:50   0.33   74.3    22   10.3   279    16.7   780.4    0.00 
 231   16:00   0.52   74.6    22   12.3   275    20.4   780.3    0.00 
 231   16:10   0.50   75.0    21   11.0   275    20.2   780.4    0.00 
 231   16:20   0.49   74.7    23   11.8   289    21.0   780.4    0.00 
 231   16:30   0.47   74.6    24   11.3   281    19.0   780.4    0.00 
 231   16:40   0.33   74.1    24   10.3   284    17.5   780.4    0.00 
 231   16:50   0.24   72.5    25    9.9   278    17.2   780.5    0.00 
 231   17:00   0.32   72.8    25    9.7   282    17.8   780.5    0.00 
 231   17:10   0.23   72.6    26    8.8   261    17.2   780.5    0.00 
 231   17:20   0.19   72.2    27    9.3   236    22.3   780.6    0.00 
 231   17:30   0.08   69.9    30   15.5   233    29.8   780.6    0.00 
 231   17:40   0.05   68.3    32   16.9   236    25.1   780.8    0.00 
 231   17:50   0.03   67.4    33   18.3   226    26.0   781.0    0.00 
 231   18:00   0.01   67.0    34   17.0   220    27.2   781.1    0.00 
 231   18:10   0.01   66.5    35   18.7   219    25.8   781.2    0.00 
 231   18:20   0.00   66.2    36   16.2   225    24.7   781.3    0.00 
 231   18:30   0.00   65.8    37   11.6   232    19.7   781.5    0.00 
 231   18:40   0.00   65.6    37   13.2   224    21.3   781.6    0.00 
 231   18:50   0.00   65.4    37   10.0   234    18.7   781.7    0.00 
 231   19:00   0.00   65.0    38    9.0   254    16.8   781.9    0.00 
 231   19:10   0.00   63.5    40    9.0   275    15.8   782.0    0.00 
 231   19:20   0.00   62.1    42   11.5   279    18.3   782.0    0.00 
 231   19:30   0.00   62.1    40    9.5   273    14.5   782.0    0.00 
 231   19:40   0.00   63.1    37    7.9   270    14.4   782.0    0.00 
 231   19:50   0.00   62.7    38    6.8   286    11.4   782.2    0.00 
 231   20:00   0.00   61.4    41    8.4   280    13.6   782.4    0.00 
 231   20:10   0.00   60.8    42   10.4   272    17.6   782.7    0.00 
 231   20:20   0.00   60.9    41    9.6   271    16.7   782.8    0.00 
 231   20:30   0.00   61.6    38    9.7   264    15.4   782.9    0.00 
 231   20:40   0.00   61.4    38   10.1   265    17.7   782.9    0.00 

Return to SNARL Reserve graphs page.


Western Regional Climate Center,wrcc@dri.edu